createdAt,value
2017-06-09T13:20:16.304Z,760
2017-06-09T13:21:28.706Z,764
2017-06-09T13:22:41.454Z,800
2017-06-09T13:23:54.350Z,1004
2017-06-09T13:25:06.750Z,1396
2017-06-09T13:26:19.163Z,1608
2017-06-09T13:27:31.565Z,1532
2017-06-09T13:28:44.467Z,1488
2017-06-09T13:29:57.414Z,1456
2017-06-09T13:31:09.896Z,1028
2017-06-09T13:32:22.800Z,1292
2017-06-09T13:33:35.897Z,1340
2017-06-09T13:34:47.812Z,1452
2017-06-09T13:36:00.708Z,1192
2017-06-09T13:37:13.603Z,972
2017-06-09T13:38:26.498Z,900
2017-06-09T13:39:39.392Z,932
2017-06-09T13:40:52.288Z,1008
2017-06-09T13:42:04.695Z,996
2017-06-09T13:43:17.099Z,1000
2017-06-09T13:44:29.505Z,1048
2017-06-09T13:45:42.597Z,1088
2017-06-09T13:46:55.491Z,1172
2017-06-09T13:48:08.404Z,1200
2017-06-09T13:49:20.812Z,1052
2017-06-09T13:50:33.711Z,984
2017-06-09T13:51:46.607Z,976
2017-06-09T13:52:59.011Z,916
2017-06-09T13:54:11.904Z,884
2017-06-09T13:55:24.308Z,904
2017-06-09T13:56:37.404Z,956
2017-06-09T13:57:49.813Z,960
2017-06-09T13:59:02.223Z,1000
2017-06-09T14:00:15.119Z,1312
2017-06-09T14:01:27.527Z,1420
2017-06-09T14:02:40.134Z,1052
2017-06-09T14:03:53.027Z,996
2017-06-09T14:05:05.938Z,976
2017-06-09T14:06:18.831Z,968
2017-06-09T14:07:31.726Z,956
2017-06-09T14:08:44.624Z,960
2017-06-09T14:09:57.032Z,1084
2017-06-09T14:11:09.928Z,912
2017-06-09T14:12:22.824Z,836
2017-06-09T14:13:35.721Z,792
2017-06-09T14:14:48.127Z,808
2017-06-09T14:16:00.530Z,676
2017-06-09T14:17:12.947Z,672
2017-06-09T14:18:25.844Z,628
2017-06-09T14:19:38.737Z,672
2017-06-09T14:20:51.143Z,656
2017-06-09T14:22:04.048Z,652
2017-06-09T14:23:15.484Z,528
2017-06-09T14:24:28.582Z,404
2017-06-09T14:25:41.472Z,272
2017-06-09T14:26:53.395Z,248
2017-06-09T14:28:06.289Z,348
2017-06-09T14:29:19.184Z,664
2017-06-09T14:30:31.589Z,908
2017-06-09T14:31:44.001Z,760
2017-06-09T14:32:56.897Z,908
2017-06-09T14:34:10.098Z,964
2017-06-09T14:35:22.047Z,760
2017-06-09T14:36:34.956Z,492
2017-06-09T14:37:47.849Z,320
2017-06-09T14:39:00.255Z,440
2017-06-09T14:40:12.689Z,644
2017-06-09T14:41:25.589Z,796
2017-06-09T14:42:38.486Z,776
2017-06-09T14:43:50.905Z,856
2017-06-09T14:45:03.804Z,940
2017-06-09T14:46:16.699Z,1044
2017-06-09T14:47:28.622Z,1032
2017-06-09T14:48:41.519Z,896
2017-06-09T14:49:54.512Z,716
2017-06-09T14:51:07.408Z,620
2017-06-09T14:52:20.306Z,652
2017-06-09T14:53:33.200Z,620
2017-06-09T14:54:45.608Z,712
2017-06-09T14:55:58.707Z,852
2017-06-09T14:57:11.117Z,960
2017-06-09T14:58:23.523Z,976
2017-06-09T14:59:35.940Z,832
2017-06-09T15:00:48.837Z,696
2017-06-09T15:02:01.734Z,536
2017-06-09T15:03:14.151Z,624
2017-06-09T15:04:27.044Z,460
2017-06-09T15:05:39.940Z,332
2017-06-09T15:06:52.566Z,196
2017-06-09T15:08:05.473Z,172
2017-06-09T15:09:17.394Z,196
2017-06-09T15:10:29.807Z,184
2017-06-09T15:11:42.905Z,264
2017-06-09T15:12:55.801Z,472
2017-06-09T15:14:08.202Z,568
2017-06-09T15:15:21.102Z,484
2017-06-09T15:16:33.508Z,408
2017-06-09T15:17:46.605Z,284
2017-06-09T15:18:59.009Z,272
2017-06-09T15:20:11.916Z,292
2017-06-09T15:21:24.814Z,332
2017-06-09T15:22:37.717Z,368
2017-06-09T15:23:50.618Z,296
2017-06-09T15:25:03.023Z,284
2017-06-09T15:26:14.946Z,340
2017-06-09T15:27:27.855Z,360
2017-06-09T15:28:40.467Z,480
2017-06-09T15:29:53.378Z,572
2017-06-09T15:31:06.301Z,716
2017-06-09T15:32:18.727Z,848
2017-06-09T15:33:31.386Z,692
2017-06-09T15:34:44.427Z,880
2017-06-09T15:35:56.483Z,1000
2017-06-09T15:37:09.590Z,888
2017-06-09T15:38:22.584Z,844
2017-06-09T15:39:35.558Z,944
2017-06-09T15:40:48.574Z,736
2017-06-09T15:42:01.538Z,536
2017-06-09T15:43:13.508Z,372
2017-06-09T15:44:25.478Z,432
2017-06-09T15:45:38.395Z,528
2017-06-09T15:46:51.315Z,512
2017-06-09T15:48:04.233Z,436
2017-06-09T15:49:17.150Z,608
2017-06-09T15:50:30.067Z,888
2017-06-09T15:51:42.987Z,1068
2017-06-09T15:52:55.411Z,1044
2017-06-09T15:54:07.852Z,1144
2017-06-09T15:55:20.990Z,1240
2017-06-09T15:56:33.415Z,1256
2017-06-09T15:57:46.331Z,1216
2017-06-09T15:58:59.270Z,1232
2017-06-09T16:00:11.703Z,1136
2017-06-09T16:01:24.141Z,1096
2017-06-09T16:02:37.057Z,1036
2017-06-09T16:03:49.977Z,936
2017-06-09T16:05:02.412Z,760
2017-06-09T16:06:14.876Z,824
2017-06-09T16:07:27.788Z,968
2017-06-09T16:08:40.708Z,1004
2017-06-09T16:09:53.137Z,988
2017-06-09T16:11:06.054Z,840
2017-06-09T16:12:18.967Z,716
2017-06-09T16:13:31.882Z,636
2017-06-09T16:14:44.698Z,596
2017-06-09T16:15:57.483Z,428
2017-06-09T16:17:10.462Z,324
2017-06-09T16:18:23.242Z,300
2017-06-09T16:19:36.034Z,236
2017-06-09T16:20:48.334Z,188
2017-06-09T16:22:00.633Z,168
2017-06-09T16:23:13.619Z,168
2017-06-09T16:24:26.408Z,192
2017-06-09T16:25:38.716Z,188
2017-06-09T16:26:51.500Z,204
2017-06-09T16:28:03.984Z,212
2017-06-09T16:29:16.287Z,252
2017-06-09T16:30:29.079Z,360
2017-06-09T16:31:42.067Z,636
2017-06-09T16:32:54.852Z,844
2017-06-09T16:34:07.639Z,840
2017-06-09T16:35:19.946Z,852
2017-06-09T16:36:32.245Z,916
2017-06-09T16:37:44.744Z,892
2017-06-09T16:38:57.057Z,876
2017-06-09T16:40:09.845Z,888
2017-06-09T16:41:22.628Z,776
2017-06-09T16:42:35.611Z,1052
2017-06-09T16:43:48.401Z,1216
2017-06-09T16:45:00.724Z,1156
2017-06-09T16:46:13.501Z,1104
2017-06-09T16:47:26.286Z,856
2017-06-09T16:48:39.073Z,1112
2017-06-09T16:49:51.881Z,880
2017-06-09T16:51:04.663Z,888
2017-06-09T16:52:16.960Z,900
2017-06-09T16:53:29.259Z,1088
2017-06-09T16:54:42.040Z,1012
2017-06-09T16:55:54.821Z,676
2017-06-09T16:57:06.162Z,800
2017-06-09T16:58:18.465Z,792
2017-06-09T16:59:31.339Z,800
2017-06-09T17:00:43.757Z,732
2017-06-09T17:01:56.168Z,760
2017-06-09T17:03:09.073Z,596
2017-06-09T17:04:22.015Z,464
2017-06-09T17:05:34.911Z,528
2017-06-09T17:06:47.807Z,664
2017-06-09T17:08:00.708Z,508
2017-06-09T17:09:13.807Z,360
2017-06-09T17:10:26.707Z,496
2017-06-09T17:11:39.604Z,544
2017-06-09T17:12:52.501Z,516
2017-06-09T17:14:05.396Z,368
2017-06-09T17:38:47.368Z,476
2017-06-09T17:40:00.131Z,388
2017-06-09T17:41:13.113Z,364
2017-06-09T17:42:26.098Z,364
2017-06-09T17:43:38.585Z,376
2017-06-09T17:44:51.088Z,364
2017-06-09T17:46:04.289Z,412
2017-06-09T17:47:17.294Z,436
2017-06-09T17:48:29.800Z,532
2017-06-09T17:49:42.303Z,568
2017-06-09T17:50:55.315Z,536
2017-06-09T17:52:08.511Z,464
2017-06-09T17:53:21.017Z,520
2017-06-09T17:54:33.527Z,536
2017-06-09T17:55:46.525Z,528
2017-06-09T17:56:59.522Z,528
2017-06-09T17:58:12.023Z,532
2017-06-09T17:59:24.456Z,520
2017-06-09T18:00:37.374Z,508
2017-06-09T18:01:50.291Z,500
2017-06-09T18:03:02.426Z,484
2017-06-09T18:04:15.345Z,492
2017-06-09T18:05:27.772Z,468
2017-06-09T18:06:40.687Z,464
2017-06-09T18:07:53.602Z,464
2017-06-09T18:09:06.518Z,452
2017-06-09T18:10:19.444Z,424
2017-06-09T18:11:31.874Z,440
2017-06-09T18:12:44.795Z,412
2017-06-09T18:13:57.222Z,368
2017-06-09T18:15:10.142Z,356
2017-06-09T18:16:23.063Z,352
2017-06-09T18:17:35.491Z,308
2017-06-09T18:18:48.414Z,276
2017-06-09T18:20:01.336Z,264
2017-06-09T18:21:13.761Z,252
2017-06-09T18:22:26.190Z,244
2017-06-09T18:23:38.128Z,236
2017-06-09T18:24:50.568Z,232
2017-06-09T18:26:03.481Z,212
2017-06-09T18:27:15.909Z,204
2017-06-09T18:28:28.832Z,200
2017-06-09T18:29:41.167Z,180
2017-06-09T18:30:53.465Z,176
2017-06-09T18:32:06.246Z,168
2017-06-09T18:33:18.544Z,160
2017-06-09T18:34:30.843Z,156
2017-06-09T18:35:43.624Z,168
2017-06-09T18:36:54.981Z,168
2017-06-09T18:38:07.767Z,152
2017-06-09T18:39:20.555Z,132
2017-06-09T18:40:33.346Z,108
2017-06-09T18:41:45.652Z,92
2017-06-09T18:42:57.470Z,72
2017-06-09T18:44:10.252Z,84
2017-06-09T18:45:23.034Z,104
2017-06-09T18:46:36.316Z,148
2017-06-09T18:47:49.099Z,144
2017-06-09T18:49:01.884Z,172
2017-06-09T18:50:14.202Z,160
2017-06-09T18:51:27.183Z,156
2017-06-09T18:52:39.964Z,200
2017-06-09T18:53:52.261Z,216
2017-06-09T18:55:05.047Z,244
2017-06-09T18:56:17.346Z,240
2017-06-09T18:57:30.338Z,220
2017-06-09T18:58:43.119Z,208
2017-06-09T18:59:55.908Z,192
2017-06-09T19:01:08.694Z,188
2017-06-09T19:02:21.192Z,196
2017-06-09T19:03:33.984Z,180
2017-06-09T19:04:46.293Z,176
2017-06-09T19:05:59.072Z,172
2017-06-09T19:07:11.849Z,168
2017-06-09T19:08:24.635Z,176
2017-06-09T19:09:37.415Z,176
2017-06-09T19:10:50.194Z,180
2017-06-09T19:12:02.491Z,176
2017-06-09T19:13:14.508Z,180
2017-06-09T19:14:27.294Z,176
2017-06-09T19:15:40.082Z,180
2017-06-09T19:16:52.872Z,172
2017-06-09T19:18:05.651Z,168
2017-06-09T19:19:18.147Z,164
2017-06-09T19:20:30.929Z,160
2017-06-09T19:21:43.227Z,148
2017-06-09T19:22:55.543Z,140
2017-06-09T19:24:08.326Z,132
2017-06-09T19:25:21.126Z,132
2017-06-09T19:26:33.909Z,140
2017-06-09T19:27:46.687Z,144
2017-06-09T19:28:59.577Z,152
2017-06-09T19:30:11.392Z,140
2017-06-09T19:31:24.178Z,144
2017-06-09T19:32:36.977Z,132
2017-06-09T19:33:49.766Z,124
2017-06-09T19:35:02.744Z,124
2017-06-09T19:36:14.563Z,116
2017-06-09T19:37:27.340Z,120
2017-06-09T19:38:40.122Z,120
2017-06-09T19:39:52.920Z,104
2017-06-09T19:41:05.701Z,88
2017-06-09T19:42:17.516Z,72
2017-06-09T19:43:30.303Z,64
2017-06-09T19:44:43.095Z,56
2017-06-09T19:45:58.908Z,44
2017-06-09T19:47:11.693Z,36
2017-06-09T19:48:24.469Z,36
2017-06-09T19:49:36.768Z,36
2017-06-09T19:50:49.550Z,36
2017-06-09T19:52:02.045Z,36
2017-06-09T19:53:14.828Z,40
2017-06-09T19:54:27.127Z,36
2017-06-09T19:55:39.905Z,36
2017-06-09T19:56:52.221Z,32
2017-06-09T19:58:04.997Z,32
2017-06-09T19:59:17.380Z,28
2017-06-09T20:00:30.282Z,28
2017-06-09T20:01:43.185Z,24
2017-06-09T20:02:56.079Z,24
2017-06-09T20:04:08.973Z,16
2017-06-09T20:05:21.381Z,16
2017-06-09T20:06:33.800Z,16
2017-06-09T20:07:46.697Z,12
2017-06-09T20:08:59.591Z,12
2017-06-09T20:10:12.000Z,8
2017-06-09T20:11:24.895Z,8
2017-06-09T20:12:37.794Z,8
2017-06-09T20:13:50.691Z,8
2017-06-09T20:15:03.107Z,8
2017-06-09T20:16:16.008Z,8
2017-06-09T20:17:28.902Z,8
2017-06-09T20:18:41.507Z,4
2017-06-09T20:19:54.405Z,4
2017-06-09T20:21:07.304Z,4
2017-06-09T20:22:19.716Z,4
2017-06-09T20:23:32.617Z,4
2017-06-09T20:24:44.533Z,4
2017-06-09T20:25:56.451Z,12
2017-06-09T20:27:09.345Z,12
2017-06-09T20:28:21.758Z,12
2017-06-09T20:29:34.167Z,12
2017-06-09T20:30:47.069Z,12
2017-06-09T20:31:59.478Z,16
2017-06-09T20:33:12.373Z,12
2017-06-09T20:34:25.268Z,12
2017-06-09T20:35:37.182Z,12
2017-06-09T20:36:50.080Z,12
2017-06-09T20:38:02.507Z,12
2017-06-09T20:39:15.405Z,12
2017-06-09T20:40:28.507Z,12
2017-06-09T20:41:41.403Z,12
2017-06-09T20:42:54.301Z,12
2017-06-09T20:44:06.670Z,12
2017-06-09T20:45:19.447Z,12
2017-06-09T20:46:31.268Z,12
2017-06-09T20:47:44.049Z,12
2017-06-09T20:48:56.345Z,12
2017-06-09T20:50:08.160Z,12
2017-06-09T20:51:20.457Z,12
2017-06-09T20:52:33.231Z,12
2017-06-09T20:53:45.726Z,12
2017-06-09T20:54:58.502Z,12
2017-06-09T20:56:11.286Z,16
2017-06-09T20:57:24.075Z,16
2017-06-09T20:58:36.853Z,12
2017-06-09T20:59:50.444Z,8
2017-06-09T21:01:02.737Z,4
2017-06-09T21:02:15.047Z,4
2017-06-09T21:03:27.829Z,12
2017-06-09T21:04:54.200Z,12
2017-06-09T21:06:07.003Z,12
2017-06-09T21:07:19.316Z,4
2017-06-09T21:08:31.615Z,4
2017-06-09T21:09:44.393Z,12
2017-06-09T21:10:57.171Z,12
2017-06-09T21:12:09.953Z,4
2017-06-09T21:13:22.750Z,16
2017-06-09T21:14:35.528Z,4
2017-06-09T21:15:48.302Z,12
2017-06-09T21:17:01.078Z,12
2017-06-09T21:18:12.893Z,12
2017-06-09T21:19:25.668Z,12
2017-06-09T21:20:37.966Z,12
2017-06-09T21:21:50.741Z,12
2017-06-09T21:23:03.515Z,12
2017-06-09T21:24:15.338Z,12
2017-06-09T21:25:27.640Z,12
2017-06-09T21:26:39.937Z,12
2017-06-09T21:27:52.716Z,12
2017-06-09T21:29:05.499Z,12
2017-06-09T21:30:18.282Z,12
2017-06-09T21:31:31.064Z,12
2017-06-09T21:32:43.360Z,12
2017-06-09T21:33:56.147Z,12
2017-06-09T21:35:08.929Z,12
2017-06-09T21:36:21.224Z,12
2017-06-09T21:37:33.520Z,12
2017-06-09T21:38:45.819Z,12
2017-06-09T21:39:58.600Z,12
2017-06-09T21:41:11.377Z,12
2017-06-09T21:42:24.153Z,16
2017-06-09T21:43:36.931Z,12
2017-06-09T21:44:49.230Z,4
2017-06-09T21:46:01.528Z,12
2017-06-09T21:47:14.333Z,12
2017-06-09T21:48:27.112Z,12
2017-06-09T21:49:39.891Z,12
2017-06-09T21:50:52.673Z,12
2017-06-09T21:52:04.965Z,12
2017-06-09T21:53:17.267Z,12
2017-06-09T21:54:30.878Z,4
2017-06-09T21:55:43.198Z,4
2017-06-09T21:56:55.499Z,4
2017-06-09T21:58:07.797Z,12
2017-06-09T21:59:19.618Z,12
2017-06-09T22:00:32.400Z,12
2017-06-09T22:01:45.177Z,12
2017-06-09T22:02:57.958Z,12
2017-06-09T22:04:10.734Z,12
2017-06-09T22:05:23.033Z,12
2017-06-09T22:06:35.816Z,12
2017-06-09T22:07:48.594Z,12
2017-06-09T22:09:01.370Z,12
2017-06-09T22:10:12.902Z,12
2017-06-09T22:11:25.675Z,12
2017-06-09T22:12:38.451Z,12
2017-06-09T22:13:51.231Z,12
2017-06-09T22:15:04.318Z,16
2017-06-09T22:16:16.253Z,12
2017-06-09T22:17:29.167Z,4
2017-06-09T22:18:42.084Z,12
2017-06-09T22:19:55.002Z,12
2017-06-09T22:21:07.918Z,12
2017-06-09T22:22:20.342Z,12
2017-06-09T22:23:32.767Z,12
2017-06-09T22:24:44.705Z,4
2017-06-09T22:25:57.818Z,16
2017-06-09T22:27:09.750Z,12
2017-06-09T22:28:22.664Z,12
2017-06-09T22:29:35.576Z,12
2017-06-09T22:30:48.490Z,12
2017-06-09T22:32:01.607Z,12
2017-06-09T22:33:14.030Z,12
2017-06-09T22:34:26.452Z,12
2017-06-09T22:35:39.371Z,12
2017-06-09T22:36:52.287Z,12
2017-06-09T22:38:04.710Z,12
2017-06-09T22:39:16.647Z,12
2017-06-09T22:40:29.073Z,12
2017-06-09T22:41:41.985Z,12
2017-06-09T22:42:53.136Z,12
2017-06-09T22:44:06.051Z,12
2017-06-09T22:45:18.479Z,4
2017-06-09T22:46:30.902Z,4
2017-06-09T22:47:44.014Z,12
2017-06-09T22:48:56.930Z,12
2017-06-09T22:50:09.850Z,12
2017-06-09T22:51:22.273Z,4
2017-06-09T22:52:35.189Z,4
2017-06-09T22:53:48.311Z,16
2017-06-09T22:55:01.224Z,16
2017-06-09T22:56:13.648Z,12
2017-06-09T22:57:26.560Z,12
2017-06-09T22:58:39.231Z,12
2017-06-09T22:59:51.643Z,12
2017-06-09T23:01:04.501Z,12
2017-06-09T23:02:17.361Z,16
2017-06-09T23:03:30.220Z,12
2017-06-09T23:04:43.090Z,4
2017-06-09T23:05:55.950Z,4
2017-06-09T23:07:08.321Z,4
2017-06-09T23:08:21.182Z,16
2017-06-09T23:09:34.041Z,12
2017-06-09T23:10:46.412Z,12
2017-06-09T23:11:59.274Z,12
2017-06-09T23:13:12.129Z,12
2017-06-09T23:14:24.015Z,12
2017-06-09T23:15:36.875Z,12
2017-06-09T23:16:49.738Z,12
2017-06-09T23:18:02.597Z,12
2017-06-09T23:19:15.457Z,12
2017-06-09T23:20:28.317Z,4
2017-06-09T23:21:41.179Z,4
2017-06-09T23:22:53.551Z,4
2017-06-09T23:24:06.408Z,12
2017-06-09T23:25:19.264Z,16
2017-06-09T23:26:32.325Z,12
2017-06-09T23:27:44.697Z,16
2017-06-09T23:28:57.562Z,8
2017-06-09T23:30:09.939Z,12
2017-06-09T23:31:22.511Z,12
2017-06-09T23:32:35.316Z,12
2017-06-09T23:33:48.094Z,12
2017-06-09T23:35:00.388Z,12
2017-06-09T23:36:12.201Z,12
2017-06-09T23:37:24.501Z,12
2017-06-09T23:38:37.280Z,12
2017-06-09T23:39:49.580Z,12
2017-06-09T23:41:02.384Z,12
2017-06-09T23:42:15.179Z,12
2017-06-09T23:43:27.993Z,12
2017-06-09T23:44:40.791Z,12
2017-06-09T23:45:52.633Z,12
2017-06-09T23:47:05.432Z,12
2017-06-09T23:48:17.244Z,12
2017-06-09T23:49:29.542Z,12
2017-06-09T23:50:42.318Z,12
2017-06-09T23:51:54.617Z,4
2017-06-09T23:53:07.392Z,16
2017-06-09T23:54:19.688Z,12
2017-06-09T23:55:32.463Z,4
2017-06-09T23:56:45.242Z,12
2017-06-09T23:57:57.557Z,12
2017-06-09T23:59:10.378Z,12
